Time;durP1;ratioP1;P1;durP2;ratioP2;P2;SDS_P1;SDS_P2;PMS_P1;PMS_P2;Temp;Humidity;BMP_temperature;BMP_pressure;BME280_temperature;BME280_humidity;BME280_pressure;Samples;Min_cycle;Max_cycle;Signal;HPM_P1;HPM_P2
2021/12/08 00:00:18;;;;;;;5.63;3.22;;;;;;;7.93;66.07;99450.72;4979900;28;20050;-68
2021/12/08 00:02:44;;;;;;;;;;;;;;;7.99;66.29;99516.00;4983364;28;20050;-69
2021/12/08 00:05:11;;;;;;;4.10;3.15;;;;;;;7.52;67.14;99480.47;4981255;28;19928;-69
2021/12/08 00:07:37;;;;;;;4.65;3.42;;;;;;;8.07;65.38;99458.50;4982061;28;20061;-69
2021/12/08 00:10:50;;;;;;;6.32;4.03;;;;;;;7.15;68.42;99523.16;4979461;28;20042;-69
2021/12/08 00:13:07;;;;;;;5.55;3.42;;;;;;;6.88;68.90;99448.41;4982943;28;20068;-68
2021/12/08 00:15:54;;;;;;;4.70;3.40;;;;;;;7.98;66.56;99488.13;4980862;28;20038;-69
2021/12/08 00:18:23;;;;;;;3.70;2.38;;;;;;;7.40;66.67;99418.75;4980735;28;20042;-69
2021/12/08 00:20:52;;;;;;;5.25;2.58;;;;;;;7.42;67.88;99492.66;4980560;28;20112;-69
2021/12/08 00:23:19;;;;;;;7.70;4.43;;;;;;;8.08;66.38;99496.78;4980207;28;20053;-69
2021/12/08 00:25:44;;;;;;;4.43;3.35;;;;;;;8.05;66.73;99495.06;4981842;28;20042;-69
2021/12/08 00:28:11;;;;;;;5.97;3.50;;;;;;;7.67;65.95;99419.50;4979199;28;20119;-69
2021/12/08 00:30:40;;;;;;;4.82;3.28;;;;;;;7.98;65.97;99485.50;4979049;28;20043;-69
2021/12/08 00:33:07;;;;;;;3.67;2.70;;;;;;;8.35;64.81;99461.81;4979013;28;20061;-69
2021/12/08 00:35:33;;;;;;;6.95;3.30;;;;;;;8.48;64.81;99505.34;4979142;28;20112;-69
2021/12/08 00:38:00;;;;;;;7.63;3.67;;;;;;;8.72;64.53;99503.44;4980408;28;20127;-70
2021/12/08 00:40:27;;;;;;;6.80;4.07;;;;;;;8.53;63.84;99464.34;4979126;28;20038;-70
2021/12/08 00:42:53;;;;;;;5.07;2.50;;;;;;;8.04;66.02;99540.38;4981241;28;20106;-69
2021/12/08 00:45:21;;;;;;;5.90;2.40;;;;;;;7.60;66.98;99536.13;4978609;28;20129;-69
2021/12/08 00:47:47;;;;;;;3.90;2.78;;;;;;;6.99;68.45;99521.41;4981685;28;20035;-70
2021/12/08 00:50:15;;;;;;;3.83;1.98;;;;;;;6.95;68.62;99497.09;4979802;28;20050;-70
2021/12/08 00:52:40;;;;;;;4.20;2.95;;;;;;;6.52;69.76;99470.97;4978023;28;20054;-70
2021/12/08 00:55:09;;;;;;;4.57;2.78;;;;;;;6.52;70.04;99520.50;4979701;28;20119;-70
2021/12/08 00:57:35;;;;;;;5.65;2.83;;;;;;;7.11;69.52;99521.41;4979973;28;20089;-69
2021/12/08 01:00:03;;;;;;;4.53;3.17;;;;;;;6.94;70.29;99546.63;4981898;28;20100;-69
2021/12/08 01:02:29;;;;;;;6.35;3.20;;;;;;;6.11;71.93;99516.06;4977167;28;20069;-69
2021/12/08 01:04:54;;;;;;;4.35;2.55;;;;;;;5.71;73.61;99530.59;4981005;28;20589;-69
2021/12/08 01:07:20;;;;;;;2.97;2.15;;;;;;;6.02;72.17;99502.13;4977674;28;20597;-69
2021/12/08 01:09:47;;;;;;;5.05;3.28;;;;;;;6.62;71.21;99513.56;4979600;28;20043;-68
2021/12/08 01:12:13;;;;;;;5.07;3.47;;;;;;;5.99;70.59;99442.22;4979773;28;20061;-69
2021/12/08 01:14:38;;;;;;;7.35;3.50;;;;;;;6.97;70.46;99533.59;4979449;28;23221;-69
2021/12/08 01:17:04;;;;;;;4.20;3.20;;;;;;;6.92;69.99;99525.75;4978593;28;20792;-69
2021/12/08 01:19:30;;;;;;;5.70;3.50;;;;;;;6.58;70.53;99519.66;5012429;28;20050;-69
2021/12/08 01:24:25;;;;;;;3.70;2.30;;;;;;;6.18;71.77;99510.84;5041026;28;20614;-70
2021/12/08 01:26:51;;;;;;;6.70;4.05;;;;;;;6.47;71.42;99518.75;5029178;28;20056;-69
2021/12/08 01:29:16;;;;;;;4.78;2.90;;;;;;;7.13;69.92;99542.28;5000549;28;20132;-69
2021/12/08 01:31:43;;;;;;;5.13;3.28;;;;;;;7.64;68.60;99544.84;5002908;28;20054;-70
2021/12/08 01:34:11;;;;;;;6.07;3.13;;;;;;;7.40;68.52;99547.50;4999287;28;20154;-70
2021/12/08 01:36:38;;;;;;;3.40;2.20;;;;;;;6.04;71.76;99485.66;5000232;28;20529;-70
2021/12/08 01:39:04;;;;;;;4.10;3.08;;;;;;;6.19;72.98;99546.47;4999902;28;20053;-70
2021/12/08 01:41:30;;;;;;;4.07;2.80;;;;;;;6.54;71.60;99516.16;4999238;28;20044;-70
2021/12/08 01:46:39;;;;;;;3.40;2.40;;;;;;;6.36;71.36;99521.31;4997491;28;20151;-70
2021/12/08 01:49:05;;;;;;;4.03;2.20;;;;;;;6.37;71.94;99553.47;4995241;28;20501;-71
2021/12/08 01:51:31;;;;;;;3.70;2.63;;;;;;;5.65;73.82;99522.75;5000466;28;21272;-70
2021/12/08 01:54:01;;;;;;;4.78;2.53;;;;;;;5.65;72.85;99468.97;5000150;28;20784;-70
2021/12/08 01:56:28;;;;;;;4.72;2.65;;;;;;;6.79;70.41;99537.06;4999647;28;20058;-70
2021/12/08 01:58:55;;;;;;;4.95;2.78;;;;;;;7.22;69.94;99563.16;5003003;28;20128;-70
2021/12/08 02:02:26;;;;;;;3.05;2.10;;;;;;;6.76;69.71;99510.97;4999717;28;20626;-69
2021/12/08 02:04:52;;;;;;;4.32;2.00;;;;;;;6.79;70.22;99568.34;5009520;28;20054;-69
2021/12/08 02:07:17;;;;;;;3.38;2.40;;;;;;;7.10;69.05;99530.13;5015934;28;20081;-69
2021/12/08 02:09:43;;;;;;;5.35;2.35;;;;;;;7.83;67.30;99564.81;5014191;28;20053;-69
2021/12/08 02:12:09;;;;;;;4.35;2.38;;;;;;;6.38;68.69;99424.94;5001359;28;20129;-70
2021/12/08 02:14:35;;;;;;;3.67;2.60;;;;;;;7.35;68.59;99538.81;5029910;28;20056;-70
2021/12/08 02:17:01;;;;;;;4.45;2.67;;;;;;;7.35;68.56;99567.50;5014681;28;20059;-70
2021/12/08 02:19:26;;;;;;;5.22;2.67;;;;;;;7.33;68.07;99543.16;5016042;28;20417;-69
2021/12/08 02:21:52;;;;;;;3.88;2.55;;;;;;;7.57;67.98;99577.91;5015682;28;20080;-69
2021/12/08 02:24:20;;;;;;;4.00;2.35;;;;;;;6.86;67.99;99515.34;5014735;28;20089;-69
2021/12/08 02:26:48;;;;;;;6.97;3.13;;;;;;;7.34;67.52;99515.31;5016205;28;20036;-69
2021/12/08 02:29:21;;;;;;;3.05;2.25;;;;;;;7.14;68.21;99576.22;5016262;28;20552;-69
2021/12/08 02:47:54;;;;;;;3.40;2.47;;;;;;;8.22;64.04;99513.28;5015162;28;20063;-69
2021/12/08 02:50:24;;;;;;;5.18;2.72;;;;;;;8.41;64.40;99588.16;5013681;28;20049;-70
2021/12/08 02:52:50;;;;;;;5.78;2.97;;;;;;;8.20;65.17;99583.84;5014432;28;20057;-69
2021/12/08 02:55:16;;;;;;;3.58;2.47;;;;;;;7.71;65.68;99533.50;5015541;28;23488;-70
2021/12/08 02:57:42;;;;;;;5.05;2.35;;;;;;;7.30;67.90;99587.50;5000927;28;20129;-70
2021/12/08 03:00:12;;;;;;;3.97;2.60;;;;;;;6.53;68.30;99484.88;5015633;28;20505;-71
2021/12/08 03:02:37;;;;;;;5.28;2.15;;;;;;;7.48;68.10;99583.16;5012916;28;20057;-71
2021/12/08 03:05:04;;;;;;;4.38;2.92;;;;;;;7.57;66.93;99563.13;5013201;28;20078;-71
2021/12/08 03:07:29;;;;;;;4.88;2.50;;;;;;;7.03;67.00;99511.88;5016529;28;20083;-68
2021/12/08 03:10:03;;;;;;;5.65;2.75;;;;;;;7.80;66.85;99589.19;5013448;28;20384;-69
2021/12/08 03:12:30;;;;;;;4.75;2.60;;;;;;;8.23;65.97;99601.25;5008048;28;20816;-69
2021/12/08 03:14:56;;;;;;;10.95;3.13;;;;;;;8.02;65.44;99568.22;5001469;28;20064;-69
2021/12/08 03:17:22;;;;;;;5.47;3.17;;;;;;;7.93;65.36;99535.16;4999713;28;20133;-68
2021/12/08 03:19:48;;;;;;;6.15;3.05;;;;;;;8.21;64.34;99540.28;5003905;28;20077;-69
2021/12/08 03:22:13;;;;;;;8.32;3.10;;;;;;;7.28;66.31;99534.47;5001443;28;20501;-68
2021/12/08 03:24:42;;;;;;;5.85;2.47;;;;;;;7.57;66.45;99578.78;5001035;28;20153;-68
2021/12/08 03:27:12;;;;;;;3.67;2.92;;;;;;;6.80;68.72;99533.56;5001741;28;20365;-68
2021/12/08 03:32:29;;;;;;;5.78;2.63;;;;;;;7.48;66.75;99583.16;5001002;28;20697;-69
2021/12/08 03:34:55;;;;;;;3.78;2.75;;;;;;;7.96;65.41;99566.53;5001541;28;20565;-70
2021/12/08 03:37:34;;;;;;;6.15;3.90;;;;;;;8.17;65.00;99617.84;4999814;28;20082;-69
2021/12/08 03:40:04;;;;;;;5.20;3.58;;;;;;;7.88;64.68;99544.75;5000666;28;20068;-71
2021/12/08 03:42:34;;;;;;;4.78;2.90;;;;;;;7.16;67.27;99597.06;5000464;28;20044;-69
2021/12/08 03:45:06;;;;;;;5.53;3.00;;;;;;;6.87;67.95;99566.59;5000361;28;20045;-70
2021/12/08 03:47:32;;;;;;;7.10;3.58;;;;;;;6.98;67.47;99556.19;5001389;28;20049;-71
2021/12/08 03:50:01;;;;;;;5.38;3.60;;;;;;;6.77;67.92;99559.66;5000700;28;20053;-70
2021/12/08 03:52:26;;;;;;;3.88;2.95;;;;;;;6.89;68.19;99606.59;4999963;28;20055;-71
2021/12/08 03:54:53;;;;;;;3.92;3.15;;;;;;;7.33;67.04;99600.56;5001354;28;20046;-71
2021/12/08 03:57:19;;;;;;;4.50;3.13;;;;;;;7.85;66.10;99615.31;4999673;28;20034;-71
2021/12/08 03:59:44;;;;;;;6.72;3.35;;;;;;;7.04;67.93;99616.19;5002265;28;20037;-70
2021/12/08 04:02:10;;;;;;;5.10;2.85;;;;;;;7.83;65.61;99606.59;4998427;28;20046;-71
2021/12/08 04:04:47;;;;;;;3.55;2.47;;;;;;;7.78;66.37;99637.94;5000000;28;20055;-70
2021/12/08 04:07:14;;;;;;;3.83;2.65;;;;;;;7.61;65.34;99592.72;5000528;28;21736;-71
2021/12/08 04:09:42;;;;;;;4.07;2.92;;;;;;;7.22;67.01;99615.34;4999938;28;20053;-69
2021/12/08 04:12:10;;;;;;;6.35;3.00;;;;;;;7.66;65.61;99585.75;5000263;28;20033;-69
2021/12/08 04:14:39;;;;;;;4.15;2.42;;;;;;;8.18;64.84;99645.69;4999385;28;20057;-70
2021/12/08 04:17:11;;;;;;;3.38;2.20;;;;;;;8.18;63.99;99616.09;4999417;28;20045;-70
2021/12/08 04:19:37;;;;;;;3.60;2.38;;;;;;;8.12;63.48;99553.38;5000388;28;20038;-69
2021/12/08 04:22:19;;;;;;;6.35;3.15;;;;;;;8.44;62.48;99590.75;4999902;28;20049;-69
2021/12/08 04:24:47;;;;;;;4.70;2.78;;;;;;;8.58;63.42;99663.03;5001187;28;20117;-70
2021/12/08 04:27:18;;;;;;;3.65;2.83;;;;;;;8.71;62.36;99635.94;4999616;28;20088;-69
2021/12/08 04:29:45;;;;;;;5.32;3.00;;;;;;;8.04;63.02;99590.88;5001306;28;20084;-69
2021/12/08 04:32:16;;;;;;;6.85;4.10;;;;;;;8.77;62.34;99635.91;4999166;28;20041;-69
2021/12/08 04:34:45;;;;;;;3.67;2.03;;;;;;;8.80;62.26;99628.06;5000565;28;20041;-69
2021/12/08 04:37:19;;;;;;;4.50;3.45;;;;;;;8.58;62.76;99615.97;4997662;28;20489;-69
2021/12/08 04:40:00;;;;;;;5.20;3.13;;;;;;;9.19;61.68;99672.31;4997821;28;20068;-69
2021/12/08 04:42:45;;;;;;;3.83;2.45;;;;;;;9.23;61.19;99661.81;4999094;28;20397;-69
2021/12/08 04:45:20;;;;;;;8.45;3.58;;;;;;;9.44;60.93;99675.63;4998888;28;20033;-69
2021/12/08 04:48:11;;;;;;;6.18;4.05;;;;;;;8.91;61.91;99629.75;5000163;28;20100;-69
2021/12/08 05:01:17;;;;;;;11.52;4.40;;;;;;;9.17;62.08;99676.69;4999163;28;20521;-71
2021/12/08 05:06:49;;;;;;;4.30;3.13;;;;;;;9.32;62.23;99697.53;5001044;28;20038;-69
2021/12/08 05:09:23;;;;;;;5.25;3.25;;;;;;;8.54;62.45;99595.94;4999771;28;20026;-69
2021/12/08 05:12:20;;;;;;;7.80;3.92;;;;;;;9.30;61.82;99680.97;5000541;28;22635;-69
2021/12/08 05:14:54;;;;;;;5.97;3.63;;;;;;;9.11;61.35;99620.00;5000982;28;20046;-69
2021/12/08 05:17:26;;;;;;;7.15;4.25;;;;;;;9.66;61.26;99697.28;4999687;28;20038;-69
2021/12/08 05:19:55;;;;;;;6.65;3.95;;;;;;;9.69;61.18;99705.09;4998647;28;20054;-69
2021/12/08 05:22:33;;;;;;;6.15;4.55;;;;;;;9.27;61.10;99641.69;4997588;28;20042;-70
2021/12/08 05:25:03;;;;;;;7.82;3.95;;;;;;;9.07;61.03;99606.06;4998267;28;20045;-70
2021/12/08 05:27:38;;;;;;;8.13;4.65;;;;;;;9.39;61.08;99651.22;4998950;28;20032;-70
2021/12/08 05:30:12;;;;;;;11.02;5.28;;;;;;;9.13;61.16;99614.75;5000150;28;20112;-70
2021/12/08 05:32:39;;;;;;;9.00;5.47;;;;;;;9.84;60.63;99710.22;5012954;28;20060;-70
2021/12/08 05:35:08;;;;;;;5.40;4.28;;;;;;;8.83;60.96;99588.78;4995692;28;20851;-70
2021/12/08 05:37:34;;;;;;;6.40;3.70;;;;;;;9.21;61.21;99647.84;4965529;28;20053;-70
2021/12/08 05:40:00;;;;;;;5.28;3.92;;;;;;;9.56;61.31;99699.09;4985452;28;20101;-69
2021/12/08 05:42:30;;;;;;;6.38;4.35;;;;;;;9.35;61.48;99681.78;4998530;28;20041;-69
2021/12/08 05:44:57;;;;;;;8.77;5.82;;;;;;;9.74;61.22;99724.31;4998096;28;20045;-72
2021/12/08 05:47:25;;;;;;;6.50;4.97;;;;;;;9.41;61.90;99721.03;4998249;28;21648;-69
2021/12/08 05:49:52;;;;;;;9.48;4.88;;;;;;;8.86;62.12;99617.53;4997813;28;20067;-69
2021/12/08 05:52:18;;;;;;;5.70;4.25;;;;;;;9.52;61.82;99723.56;5020219;28;20510;-70
2021/12/08 05:54:46;;;;;;;6.72;4.85;;;;;;;9.19;61.24;99618.19;4999138;28;20108;-69
2021/12/08 05:57:17;;;;;;;7.07;4.40;;;;;;;9.25;61.19;99640.88;4999242;28;20029;-69
2021/12/08 05:59:44;;;;;;;6.57;5.88;;;;;;;9.77;61.39;99729.50;4997301;28;20402;-70
2021/12/08 06:02:24;;;;;;;14.13;6.05;;;;;;;9.86;60.76;99707.59;4996784;28;20057;-69
2021/12/08 06:04:50;;;;;;;5.75;3.90;;;;;;;9.27;60.94;99658.28;4998988;28;20160;-69
2021/12/08 06:07:21;;;;;;;5.32;3.50;;;;;;;9.54;61.19;99661.56;4996628;28;20129;-69
2021/12/08 06:09:47;;;;;;;6.50;4.32;;;;;;;9.39;61.19;99691.38;4997096;28;20493;-69
2021/12/08 06:12:13;;;;;;;5.95;4.00;;;;;;;9.76;61.12;99703.31;4998425;28;20073;-69
2021/12/08 06:14:39;;;;;;;7.88;3.22;;;;;;;9.35;60.20;99632.06;4998612;28;20030;-69
2021/12/08 06:17:09;;;;;;;6.97;3.80;;;;;;;10.03;59.80;99712.69;4997822;28;20199;-69
2021/12/08 06:19:36;;;;;;;5.43;3.85;;;;;;;9.74;59.53;99643.09;4996717;28;20049;-70
2021/12/08 06:22:05;;;;;;;8.00;4.88;;;;;;;9.42;60.40;99653.81;4997756;28;20049;-70
2021/12/08 06:24:31;;;;;;;7.32;5.05;;;;;;;9.92;60.06;99724.13;4999333;28;20026;-70
2021/12/08 06:28:26;;;;;;;5.40;3.97;;;;;;;9.38;60.70;99686.13;5065049;27;20607;-69
2021/12/08 06:30:52;;;;;;;5.50;3.88;;;;;;;9.45;60.55;99656.41;5040733;28;20072;-69
2021/12/08 06:33:20;;;;;;;5.18;3.38;;;;;;;9.47;60.53;99652.91;5040195;28;20287;-68
2021/12/08 06:35:51;;;;;;;4.85;3.67;;;;;;;10.01;60.47;99738.91;5038226;28;20029;-69
2021/12/08 06:38:17;;;;;;;7.65;4.88;;;;;;;10.35;59.87;99767.50;5041107;28;20508;-69
2021/12/08 06:40:51;;;;;;;6.78;4.75;;;;;;;9.93;60.10;99723.25;5041882;28;20052;-70
2021/12/08 06:43:20;;;;;;;6.65;4.43;;;;;;;10.18;60.04;99741.38;5022560;28;20823;-69
2021/12/08 06:45:49;;;;;;;6.68;3.60;;;;;;;10.27;59.91;99746.53;5035478;28;20052;-67
2021/12/08 06:48:19;;;;;;;5.28;3.30;;;;;;;10.30;59.86;99769.25;5032960;28;20032;-69
2021/12/08 06:50:56;;;;;;;5.80;3.88;;;;;;;10.20;59.85;99738.75;5039769;28;20094;-69
2021/12/08 06:53:23;;;;;;;5.55;4.30;;;;;;;10.11;59.46;99692.50;5041872;28;20508;-69
2021/12/08 06:55:56;;;;;;;5.97;4.10;;;;;;;10.07;59.71;99680.34;5028805;28;20041;-69
2021/12/08 06:58:26;;;;;;;9.75;5.00;;;;;;;10.43;59.54;99731.56;5021768;28;20124;-70
2021/12/08 07:05:30;;;;;;;8.13;5.70;;;;;;;9.83;60.41;99698.03;5091524;28;20048;-68
2021/12/08 07:08:07;;;;;;;7.13;4.22;;;;;;;9.87;60.08;99691.84;5055881;28;20408;-69
2021/12/08 07:10:39;;;;;;;6.32;4.13;;;;;;;10.18;59.34;99690.69;5068495;28;20052;-70
2021/12/08 07:13:11;;;;;;;6.35;4.10;;;;;;;10.72;59.07;99773.22;5082166;28;20043;-68
2021/12/08 07:15:50;;;;;;;8.05;4.63;;;;;;;10.41;59.47;99766.53;5078578;28;20521;-69
2021/12/08 07:18:21;;;;;;;5.97;4.35;;;;;;;9.30;61.22;99700.16;5094677;28;20031;-68
2021/12/08 07:20:51;;;;;;;5.80;4.15;;;;;;;9.85;61.20;99746.03;5096123;28;20027;-69
2021/12/08 07:23:28;;;;;;;6.65;3.95;;;;;;;9.50;61.22;99726.22;5095530;28;20051;-71
2021/12/08 07:25:57;;;;;;;7.13;4.45;;;;;;;9.28;61.40;99653.91;5094902;28;20532;-69
2021/12/08 07:28:24;;;;;;;4.90;3.17;;;;;;;9.92;60.35;99681.31;5076837;28;20114;-69
2021/12/08 07:31:01;;;;;;;5.88;4.28;;;;;;;10.82;60.16;99795.00;5096376;28;20127;-69
2021/12/08 07:33:28;;;;;;;6.28;4.40;;;;;;;10.44;60.04;99759.53;5096316;28;20097;-69
2021/12/08 07:35:58;;;;;;;8.27;4.93;;;;;;;9.82;60.24;99693.66;5078355;28;20028;-69
2021/12/08 07:38:26;;;;;;;6.93;4.32;;;;;;;9.92;59.63;99665.59;5077387;28;20043;-69
2021/12/08 07:41:05;;;;;;;10.52;5.75;;;;;;;10.32;60.01;99728.16;5075993;28;20054;-70
2021/12/08 07:43:33;;;;;;;7.45;5.40;;;;;;;10.80;60.00;99811.63;5095397;28;20741;-69
2021/12/08 07:46:05;;;;;;;7.15;5.50;;;;;;;9.52;62.13;99726.19;5077130;28;20036;-69
2021/12/08 07:48:38;;;;;;;7.38;5.10;;;;;;;10.46;61.16;99806.72;5093836;28;20035;-69
2021/12/08 07:51:13;;;;;;;6.07;4.63;;;;;;;9.48;63.66;99806.53;5093471;28;20050;-69
2021/12/08 07:53:38;;;;;;;7.25;5.07;;;;;;;9.62;62.27;99714.78;5072653;28;20571;-69
2021/12/08 07:56:08;;;;;;;8.93;5.07;;;;;;;9.83;60.84;99708.50;5073500;28;20045;-69
2021/12/08 07:58:39;;;;;;;7.80;5.63;;;;;;;10.18;61.19;99787.69;5074788;28;20037;-69
2021/12/08 08:01:19;;;;;;;8.60;4.60;;;;;;;9.62;62.60;99775.03;5076267;28;20514;-69
2021/12/08 08:03:45;;;;;;;7.38;5.00;;;;;;;9.84;61.89;99736.44;5075070;28;20052;-70
2021/12/08 08:06:19;;;;;;;6.00;5.07;;;;;;;10.49;60.83;99801.47;5076119;28;20036;-70
2021/12/08 08:08:45;;;;;;;7.53;5.22;;;;;;;10.52;59.74;99765.56;5074122;28;20577;-70
2021/12/08 08:11:22;;;;;;;7.43;5.07;;;;;;;10.47;59.69;99750.75;5075393;28;20048;-70
2021/12/08 08:13:48;;;;;;;6.05;3.88;;;;;;;10.83;59.54;99793.22;5060704;28;20049;-69
2021/12/08 08:16:19;;;;;;;6.85;5.20;;;;;;;10.51;59.34;99718.34;5059485;28;20120;-69
2021/12/08 08:18:52;;;;;;;6.35;4.70;;;;;;;11.14;58.83;99823.50;5059579;28;20052;-69
2021/12/08 08:21:22;;;;;;;8.48;5.53;;;;;;;9.26;61.57;99703.66;5059712;28;20040;-70
2021/12/08 08:23:50;;;;;;;7.07;3.90;;;;;;;9.09;62.45;99711.63;5060610;28;20033;-69
2021/12/08 08:26:17;;;;;;;9.93;4.80;;;;;;;9.73;63.01;99820.34;5060664;28;20057;-69
2021/12/08 08:28:46;;;;;;;8.57;5.10;;;;;;;9.71;63.01;99795.91;5058296;28;20052;-69
2021/12/08 08:31:17;;;;;;;10.23;6.03;;;;;;;10.34;61.61;99805.06;5060483;28;20129;-70
2021/12/08 08:33:45;;;;;;;7.72;4.63;;;;;;;10.73;60.09;99800.34;5059894;28;20049;-70
2021/12/08 08:36:17;;;;;;;7.75;4.63;;;;;;;10.73;60.00;99795.09;5060661;28;20373;-70
2021/12/08 08:38:56;;;;;;;12.02;4.63;;;;;;;10.84;59.55;99832.59;5057289;28;20213;-71
2021/12/08 08:41:33;;;;;;;6.80;4.40;;;;;;;10.69;60.05;99803.88;5059628;28;20053;-69
2021/12/08 08:44:06;;;;;;;13.60;6.03;;;;;;;10.02;60.74;99714.44;5059586;28;20139;-70
2021/12/08 08:46:37;;;;;;;6.13;4.63;;;;;;;9.46;61.90;99770.75;5057303;28;20045;-70
2021/12/08 08:49:13;;;;;;;7.75;4.53;;;;;;;9.13;64.21;99761.31;5060067;28;20083;-69
2021/12/08 08:51:45;;;;;;;6.85;4.47;;;;;;;9.66;62.06;99726.94;5057966;28;20102;-69
2021/12/08 08:54:19;;;;;;;11.57;5.25;;;;;;;10.19;62.29;99799.94;5057379;28;20120;-71
2021/12/08 08:56:50;;;;;;;10.55;5.55;;;;;;;10.63;61.94;99803.91;5059314;28;20044;-68
2021/12/08 08:59:22;;;;;;;6.38;4.25;;;;;;;10.84;60.48;99797.56;5057913;28;20052;-71
2021/12/08 09:01:51;;;;;;;7.07;4.38;;;;;;;10.90;60.83;99816.75;5058985;28;20059;-70
2021/12/08 09:04:28;;;;;;;5.97;4.05;;;;;;;9.78;63.35;99785.38;5077177;28;20051;-72
2021/12/08 09:07:02;;;;;;;11.80;4.90;;;;;;;9.66;62.87;99706.00;5097933;28;20066;-73
2021/12/08 09:09:30;;;;;;;5.47;4.00;;;;;;;9.25;64.03;99725.50;5095586;28;20035;-70
2021/12/08 09:14:35;;;;;;;8.18;4.28;;;;;;;9.24;66.74;99807.50;5009927;27;20644;-70
2021/12/08 09:17:47;;;;;;;6.25;4.28;;;;;;;10.03;63.97;99810.53;5020175;28;20049;-69
2021/12/08 09:20:44;;;;;;;6.15;3.40;;;;;;;9.42;63.08;99693.97;5026840;28;20057;-69
2021/12/08 09:23:24;;;;;;;7.53;5.00;;;;;;;10.10;63.69;99796.50;5029180;28;20053;-70
2021/12/08 09:26:21;;;;;;;6.18;3.97;;;;;;;9.84;63.59;99757.41;5028562;28;20076;-69
2021/12/08 09:29:01;;;;;;;7.07;5.93;;;;;;;10.28;61.58;99723.81;5020005;28;20049;-69
2021/12/08 09:31:37;;;;;;;7.95;4.50;;;;;;;10.61;61.91;99803.09;5025849;28;20107;-69
2021/12/08 09:34:09;;;;;;;7.38;4.22;;;;;;;10.52;62.18;99796.16;5024144;28;20053;-69
2021/12/08 09:36:42;;;;;;;5.80;3.58;;;;;;;10.86;60.81;99801.06;5026991;28;21540;-70
2021/12/08 09:39:21;;;;;;;;;;;;;;;10.87;60.86;99801.06;5029083;28;20685;-70
2021/12/08 09:41:52;;;;;;;9.43;3.72;;;;;;;10.55;60.59;99762.88;5027444;28;20010;-69
2021/12/08 09:44:22;;;;;;;5.28;3.17;;;;;;;10.77;60.23;99781.06;5029751;28;20052;-69
2021/12/08 09:46:50;;;;;;;6.45;3.33;;;;;;;10.20;60.42;99712.53;5013288;28;20088;-70
2021/12/08 09:49:19;;;;;;;8.38;3.75;;;;;;;10.24;61.40;99743.09;5016288;28;20052;-70
2021/12/08 09:51:46;;;;;;;7.47;3.95;;;;;;;11.13;59.74;99798.13;5020585;28;20041;-70
2021/12/08 09:54:11;;;;;;;7.10;4.15;;;;;;;10.93;59.49;99748.50;5035002;28;20389;-70
2021/12/08 09:56:39;;;;;;;7.55;4.75;;;;;;;10.77;59.57;99692.69;5034488;28;20045;-70
2021/12/08 09:59:07;;;;;;;5.43;3.25;;;;;;;10.23;59.90;99660.06;5026094;28;20467;-70
2021/12/08 10:01:33;;;;;;;7.80;3.20;;;;;;;9.93;61.68;99711.91;5028569;28;20076;-70
2021/12/08 10:04:00;;;;;;;5.82;3.15;;;;;;;9.65;63.61;99742.69;5023343;28;20049;-71
2021/12/08 10:06:26;;;;;;;5.32;2.67;;;;;;;9.84;63.05;99739.06;5027808;28;20052;-71
2021/12/08 10:08:58;;;;;;;9.02;3.20;;;;;;;10.21;61.97;99714.25;5028803;28;20514;-70
2021/12/08 10:11:27;;;;;;;5.63;3.30;;;;;;;10.65;61.52;99757.56;5028003;28;20054;-70
2021/12/08 10:13:53;;;;;;;5.93;3.03;;;;;;;10.92;60.84;99793.13;5030854;28;20098;-70
2021/12/08 10:16:19;;;;;;;3.63;2.00;;;;;;;11.16;60.74;99782.31;5028453;28;20049;-70
2021/12/08 10:18:45;;;;;;;7.05;2.75;;;;;;;9.77;60.77;99632.56;5028113;28;20052;-70
2021/12/08 10:21:13;;;;;;;10.32;3.38;;;;;;;10.49;60.91;99710.50;5029527;28;20057;-70
2021/12/08 10:23:44;;;;;;;6.00;3.25;;;;;;;10.60;60.09;99668.41;5027956;28;20053;-70
2021/12/08 10:26:11;;;;;;;6.30;3.85;;;;;;;10.38;59.90;99675.66;5017013;28;20133;-70
2021/12/08 10:28:40;;;;;;;6.72;3.25;;;;;;;11.15;60.26;99795.47;5015596;28;20516;-70
2021/12/08 10:31:08;;;;;;;8.98;3.05;;;;;;;10.85;59.60;99726.69;5007739;28;20054;-70
2021/12/08 10:33:58;;;;;;;5.18;3.42;;;;;;;11.03;58.91;99687.97;4992813;28;20054;-70
2021/12/08 10:36:53;;;;;;;6.47;4.63;;;;;;;11.17;59.07;99762.19;4996415;28;20034;-70
2021/12/08 10:39:33;;;;;;;6.57;4.05;;;;;;;10.93;58.66;99690.75;5015769;28;20066;-69
2021/12/08 10:42:18;;;;;;;6.22;3.65;;;;;;;11.14;58.74;99684.34;4994389;28;20037;-69
2021/12/08 10:45:07;;;;;;;5.55;3.85;;;;;;;11.13;58.54;99715.84;5013680;28;20042;-70
2021/12/08 10:47:43;;;;;;;5.78;3.50;;;;;;;11.17;58.59;99785.84;5015142;28;20042;-69
2021/12/08 10:56:06;;;;;;;8.27;4.63;;;;;;;11.17;58.49;99747.31;5013422;28;20053;-70
2021/12/08 10:58:35;;;;;;;6.30;4.35;;;;;;;10.48;60.25;99697.41;5011401;28;20040;-69
2021/12/08 11:01:22;;;;;;;5.70;4.40;;;;;;;11.02;59.74;99772.88;5014096;28;20052;-69
2021/12/08 11:03:50;;;;;;;7.07;4.68;;;;;;;10.61;58.81;99669.28;5012264;28;20082;-70
2021/12/08 11:06:17;;;;;;;7.55;5.05;;;;;;;10.69;60.01;99804.72;5011760;28;20129;-71
2021/12/08 11:08:46;;;;;;;9.10;4.90;;;;;;;10.43;61.71;99802.38;5011981;28;20054;-71
2021/12/08 11:11:20;;;;;;;6.43;5.05;;;;;;;10.11;60.99;99696.03;5011070;28;20050;-70
2021/12/08 11:13:57;;;;;;;9.98;4.57;;;;;;;10.54;60.51;99695.59;5015075;28;20049;-71
2021/12/08 11:16:25;;;;;;;7.85;5.75;;;;;;;10.20;61.49;99770.22;5011211;28;20146;-70
2021/12/08 11:18:57;;;;;;;9.40;5.95;;;;;;;10.33;60.26;99680.09;5014042;28;20808;-70
2021/12/08 11:21:31;;;;;;;10.47;5.93;;;;;;;10.37;61.01;99760.44;5003681;28;20037;-70
2021/12/08 11:23:59;;;;;;;8.43;6.05;;;;;;;9.33;63.70;99727.19;5001077;28;20132;-69
2021/12/08 11:26:37;;;;;;;8.93;6.25;;;;;;;10.03;63.02;99731.03;5012499;28;20046;-70
2021/12/08 11:29:18;;;;;;;10.27;5.30;;;;;;;9.33;64.19;99696.63;5013763;28;20091;-70
2021/12/08 11:31:46;;;;;;;6.63;5.07;;;;;;;8.66;65.14;99690.00;5012003;28;20057;-70
2021/12/08 11:34:26;;;;;;;7.30;5.95;;;;;;;8.85;66.68;99798.94;5012068;28;20045;-69
2021/12/08 11:36:58;;;;;;;7.03;4.53;;;;;;;8.74;66.28;99768.47;5012665;28;20146;-69
2021/12/08 11:39:33;;;;;;;12.38;5.30;;;;;;;9.12;66.02;99759.59;5010479;28;20040;-69
2021/12/08 11:41:59;;;;;;;8.30;5.90;;;;;;;9.82;63.60;99725.09;4896769;28;20557;-69
2021/12/08 11:44:30;;;;;;;8.90;5.90;;;;;;;10.30;63.26;99800.72;5012164;28;20053;-68
2021/12/08 11:46:58;;;;;;;7.63;5.95;;;;;;;9.78;63.26;99731.22;5011797;28;20046;-70
2021/12/08 11:49:25;;;;;;;17.92;7.93;;;;;;;9.61;64.45;99795.97;5012207;28;20063;-69
2021/12/08 11:52:05;;;;;;;9.55;6.95;;;;;;;9.55;64.08;99722.66;5010413;28;20121;-69
2021/12/08 11:54:52;;;;;;;10.18;6.47;;;;;;;9.79;64.43;99795.00;5012058;28;20044;-69
2021/12/08 11:57:21;;;;;;;10.15;7.60;;;;;;;9.23;65.08;99731.63;5010051;28;20033;-69
2021/12/08 12:00:23;;;;;;;13.18;6.60;;;;;;;7.82;67.65;99678.88;5014069;28;20065;-70
2021/12/08 12:03:10;;;;;;;8.55;6.88;;;;;;;9.09;65.00;99676.72;5013884;28;20049;-70
2021/12/08 12:05:35;;;;;;;9.13;6.78;;;;;;;9.47;63.62;99684.31;5012731;28;20052;-68
2021/12/08 12:10:39;;;;;;;12.38;8.95;;;;;;;9.68;64.13;99764.50;5061138;27;20623;-69
2021/12/08 12:13:08;;;;;;;10.68;8.18;;;;;;;10.04;63.41;99751.13;5034047;28;20045;-69
2021/12/08 12:15:35;;;;;;;10.05;8.07;;;;;;;10.28;62.34;99761.44;5027219;28;20052;-69
2021/12/08 12:18:01;;;;;;;10.82;7.85;;;;;;;10.74;60.51;99754.81;5076594;28;20450;-70
2021/12/08 12:20:36;;;;;;;10.60;8.68;;;;;;;11.51;59.19;99811.66;5078732;28;20555;-70
2021/12/08 12:23:45;;;;;;;10.82;8.57;;;;;;;11.29;58.70;99753.28;5078980;28;20036;-70
2021/12/08 12:26:46;;;;;;;14.20;7.78;;;;;;;10.68;59.18;99676.19;5078522;28;20041;-67
2021/12/08 12:29:31;;;;;;;12.07;8.68;;;;;;;9.83;61.39;99689.28;5045541;28;20052;-69
2021/12/08 12:34:39;;;;;;;10.60;8.48;;;;;;;9.36;63.03;99703.59;5077087;27;21241;-69
2021/12/08 12:37:16;;;;;;;11.23;8.90;;;;;;;9.76;62.61;99725.13;5058241;28;20045;-69
2021/12/08 12:39:50;;;;;;;16.10;9.60;;;;;;;8.66;65.60;99744.91;5055666;28;20072;-69
2021/12/08 12:42:18;;;;;;;15.00;8.68;;;;;;;9.18;65.56;99796.22;5057792;28;20496;-69
2021/12/08 12:45:06;;;;;;;12.70;9.45;;;;;;;9.33;63.89;99756.00;5056757;28;20040;-69
2021/12/08 12:47:32;;;;;;;15.75;10.48;;;;;;;9.53;64.96;99835.31;5053115;28;20072;-69
2021/12/08 12:50:00;;;;;;;12.68;10.52;;;;;;;9.92;63.42;99838.56;5055402;28;20497;-69
2021/12/08 12:52:38;;;;;;;14.63;10.45;;;;;;;9.94;62.23;99732.84;5056680;28;20476;-69
2021/12/08 12:55:12;;;;;;;13.50;8.95;;;;;;;10.76;60.39;99816.91;5053851;28;20049;-69